Aeroporto :
LOGIN :

Iscrizione | Disclaimer

   EN    FR    IT 

 










Sommario :    VFR   VFR Marginale   IFR   IFR Intensivo   IFR Molto Intensivo
Visibilità : 
Base nubi : 
>= 8 km
>= 3000ft
5 / 8 km
1000 / 3000 ft
1500m / 5 km
500 / 1000 ft
800 / 1500m
200 / 500 ft
< 800m
< 200 ft
Simboli :   Temporali  Nebbia  Neve Forte  Precipitazioni Forti  Vento > 20 kt
SIGMETs :   Varie  Temporali  Ghiacco  Turbolenza  Onda orograficha  Ceneri Vulcaniche






- Altitudine del aeroporto : 1504 ft
- Codice IATA : PNA


LEPP - Noain Pamplona

ULTIMO METAR :
  • 200230Z AUTO VRB01KT CAVOK 01/01 Q1012

METARs OBSOLETI :
  • 200200Z AUTO 30003KT CAVOK 01/01 Q1012
  • 200130Z AUTO 31003KT CAVOK 01/01 Q1012
  • 200100Z AUTO VRB01KT 9999 NCD 02/00 Q1012
  • 200030Z AUTO VRB01KT 9999 NCD 03/01 Q1013
  • 200000Z AUTO 17001KT CAVOK 03/01 Q1013
  • 192330Z AUTO 17003KT CAVOK 04/01 Q1013

TAF TAF LEPP
Valido dal 20 a 03 ore il 21 a 03 ore UTC


200200Z 2003/2103 VRB05KT 9999 FEW030 TX11/2014Z TNM00/2006Z
TEMPO 2010/2024 14011KT
TEMPO 2019/2024 RA



MetMap, La meteo Aeronautica in un colpo d'occhio ! - Copyright ORBIFLY Dicembre 2007 - Disclaimer

ORBIFLY MET'MAP TEAM :

Programmazione e sviluppo : Alexandra Zaïnal
Concezione e sviluppo : Baudouin d'Aumeries
Co-Programmazione e sviluppo : Marc-Olivier Méhu
Supporto tecnico e logistico : Manuel Goepfert
Aiuto per la traduzione : Arnaldo La Scala

Contatto : metmap@orbifly.com




FONTI E CREDITI :

   NOAA